San Beato — HBLC — position and weather

sailwx.info

Track history (hours):
 
Tides and Currents Weather Stations Pressure Air Temp Water Temp Dewpoint Dewpoint Depression Visibility Wind Speed Wind Dir Waves Ship Positions

San Beato

Last reported at 2018-Jun-17 03:14 UTC. Time now 2018-Jun-18 19:07 UTC.
Position N 35°55' W 005°01'.

Length 110 m; draft 6 m.

Type: Tanker. MMSI: 269032000.

Date/timePositionNaut miles runAvg speedWind from/ knotsBaromVisibWave heightAir tempDewpointWater temp
2018-Jun-17 03:14N 35°55' W 005°01'612.8
2018-Jun-17 02:45N 35°56' W 005°09'313.7
2018-Jun-17 02:31N 35°57' W 005°13'713.4
2018-Jun-17 02:01N 35°58' W 005°21'612.2
2018-Jun-17 01:30N 35°57' W 005°28'611.1
2018-Jun-17 01:01N 35°55' W 005°35'510.1
2018-Jun-17 00:30N 35°54' W 005°41'4 8.4
2018-Jun-16 23:59N 35°53' W 005°46'94 4.0
2018-Jun-16 00:10N 37°10' W 006°54'0 0.0
2018-Jun-15 23:58N 37°10' W 006°54'  
2018-Jun-11 23:34N 37°26' W 009°51'111.9
2018-Jun-11 23:27N 37°28' W 009°51'511.9
2018-Jun-11 23:00N 37°33' W 009°53'611.8
2018-Jun-11 22:30N 37°38' W 009°55'611.7
2018-Jun-11 22:00N 37°44' W 009°56'1011.8
2018-Jun-11 21:08N 37°54' W 009°59'612.2
2018-Jun-11 20:39N 37°60' W 010°01'212.1
2018-Jun-11 20:28N 38°02' W 010°01'1111.9
2018-Jun-11 19:33N 38°13' W 010°04'112.3
2018-Jun-11 19:26N 38°14' W 010°05'712.3
2018-Jun-11 18:53N 38°21' W 010°07'412.1
2018-Jun-11 18:30N 38°25' W 010°08'612.2
2018-Jun-11 17:59N 38°31' W 010°10'612.2
2018-Jun-11 17:30N 38°37' W 010°12'612.0
2018-Jun-11 16:59N 38°43' W 010°13'612.0
2018-Jun-11 16:30N 38°49' W 010°13'612.5
2018-Jun-11 16:00N 38°55' W 010°13'612.6
2018-Jun-11 15:30N 39°01' W 010°13'611.9
2018-Jun-11 15:00N 39°07' W 010°13'338 9.1
2018-Jun-10 02:04N 43°53' W 006°12'311.7
2018-Jun-10 01:50N 43°52' W 006°08'511.5
2018-Jun-10 01:22N 43°52' W 006°01'411.6
2018-Jun-10 01:00N 43°52' W 005°54'611.8
2018-Jun-10 00:30N 43°51' W 005°46'2411.9
2018-Jun-09 22:30N 43°49' W 005°14'1611.9
2018-Jun-09 21:08N 43°48' W 004°51'211.9
2018-Jun-09 20:58N 43°48' W 004°48'4112.0
2018-Jun-09 17:35N 43°44' W 003°52'112.2
2018-Jun-09 17:30N 43°44' W 003°51'612.2
2018-Jun-09 17:00N 43°44' W 003°43'612.3
2018-Jun-09 16:30N 43°43' W 003°34'712.2
2018-Jun-09 15:57N 43°43' W 003°25'1212.3
2018-Jun-09 15:00N 43°42' W 003°09'612.4
2018-Jun-09 14:30N 43°41' W 003°00'612.3
2018-Jun-09 14:00N 43°41' W 002°52'612.2
2018-Jun-09 13:30N 43°40' W 002°43'612.0
2018-Jun-09 13:00N 43°40' W 002°35'612.2
2018-Jun-09 12:30N 43°39' W 002°27'612.2
2018-Jun-09 12:00N 43°39' W 002°18'611.6
2018-Jun-09 11:30N 43°38' W 002°10'611.5
2018-Jun-09 11:00N 43°38' W 002°02'611.5
2018-Jun-09 10:30N 43°37' W 001°54'611.4
2018-Jun-09 10:00N 43°36' W 001°47'611.3
2018-Jun-09 09:30N 43°34' W 001°39'510.2
2018-Jun-09 09:01N 43°32' W 001°33'2 3.7
2018-Jun-09 08:28N 43°32' W 001°30'0 0.0
2018-Jun-09 07:58N 43°32' W 001°30'0 0.0
2018-Jun-09 07:28N 43°32' W 001°30'0 0.0
2018-Jun-09 06:58N 43°32' W 001°30'0 0.0
2018-Jun-09 06:28N 43°32' W 001°30'0 0.0
2018-Jun-09 05:58N 43°32' W 001°30'0 0.0
2018-Jun-09 05:28N 43°32' W 001°30'0 0.0
2018-Jun-09 04:58N 43°32' W 001°30'0 0.0
2018-Jun-09 03:01N 43°32' W 001°30'0 0.0
2018-Jun-09 02:52N 43°32' W 001°30'0 0.0
2018-Jun-09 02:28N 43°32' W 001°30'0 0.0
2018-Jun-09 00:55N 43°32' W 001°30'0 0.0
2018-Jun-09 00:25N 43°32' W 001°30'0 0.0
2018-Jun-08 23:58N 43°32' W 001°30'0 0.0
2018-Jun-08 23:28N 43°32' W 001°30'0 0.0
2018-Jun-08 22:58N 43°32' W 001°30'0 0.0
2018-Jun-08 22:28N 43°32' W 001°30'0 0.0
2018-Jun-08 21:58N 43°32' W 001°30'0 0.0
2018-Jun-08 21:28N 43°32' W 001°30'0 0.0
2018-Jun-08 12:43N 43°32' W 001°30'0 0.0
2018-Jun-08 12:30N 43°32' W 001°30'0 0.0
2018-Jun-08 12:00N 43°32' W 001°30'0 0.7
2018-Jun-08 11:30N 43°32' W 001°31'3 5.3
2018-Jun-08 11:00N 43°34' W 001°33'0 0.4
2018-Jun-08 10:29N 43°34' W 001°33'0 0.0
2018-Jun-08 09:59N 43°34' W 001°33'0 0.0
2018-Jun-08 09:29N 43°34' W 001°33'0 0.0
2018-Jun-08 08:59N 43°34' W 001°33'0 0.0
2018-Jun-08 08:29N 43°34' W 001°33'0 0.0
2018-Jun-08 07:59N 43°34' W 001°33'0 0.1
2018-Jun-08 07:29N 43°34' W 001°33'0 0.0
2018-Jun-08 06:59N 43°34' W 001°33'0 0.0
2018-Jun-08 06:29N 43°34' W 001°33'0 0.0
2018-Jun-08 05:59N 43°34' W 001°33'0 0.0
2018-Jun-08 05:29N 43°34' W 001°33'0 0.0
2018-Jun-08 04:59N 43°34' W 001°33'0 0.1
2018-Jun-08 04:29N 43°34' W 001°33'0 0.1
2018-Jun-08 03:59N 43°34' W 001°33'0 0.0
2018-Jun-08 03:29N 43°34' W 001°33'0 0.0
2018-Jun-08 02:59N 43°34' W 001°33'0 0.1
2018-Jun-08 02:29N 43°34' W 001°33'0 0.0
2018-Jun-08 01:59N 43°34' W 001°33'0 0.0
2018-Jun-08 01:29N 43°34' W 001°33'0 0.0
2018-Jun-08 00:59N 43°34' W 001°33'0 0.0
2018-Jun-08 00:29N 43°34' W 001°33'0 0.0
2018-Jun-07 23:59N 43°34' W 001°33'0 0.0
2018-Jun-07 23:29N 43°34' W 001°34'0 0.1
2018-Jun-07 22:59N 43°34' W 001°34'0 0.6
2018-Jun-07 22:30N 43°34' W 001°34'4 8.7
2018-Jun-07 22:00N 43°36' W 001°39'611.1
2018-Jun-07 21:30N 43°39' W 001°46'510.9
2018-Jun-07 21:00N 43°41' W 001°53'1 1.3
2018-Jun-07 20:30N 43°42' W 001°53'0 0.7
2018-Jun-07 20:00N 43°42' W 001°53'0 0.6
2018-Jun-07 19:30N 43°42' W 001°53'0 0.6
2018-Jun-07 19:00N 43°43' W 001°53'0 0.3
2018-Jun-07 18:30N 43°43' W 001°53'0 0.1
2018-Jun-07 18:00N 43°43' W 001°53'0 0.2
2018-Jun-07 17:30N 43°43' W 001°53'0 0.2
2018-Jun-07 17:00N 43°43' W 001°53'0 0.1
2018-Jun-07 16:30N 43°43' W 001°53'0 0.2
2018-Jun-07 16:00N 43°43' W 001°53'0 0.2
2018-Jun-07 15:30N 43°43' W 001°53'0 0.3
2018-Jun-07 15:00N 43°43' W 001°53'0 0.3
2018-Jun-07 14:30N 43°43' W 001°53'0 0.2
2018-Jun-07 14:00N 43°43' W 001°53'2 3.6
2018-Jun-07 13:30N 43°42' W 001°51'5 9.1
2018-Jun-07 13:00N 43°39' W 001°46'3 5.4
2018-Jun-07 12:30N 43°37' W 001°48'611.3
2018-Jun-07 12:00N 43°37' W 001°56'611.3
2018-Jun-07 11:30N 43°38' W 002°04'611.4
2018-Jun-07 11:00N 43°39' W 002°12'611.4
2018-Jun-07 10:30N 43°39' W 002°20'611.5
2018-Jun-07 10:00N 43°40' W 002°27'611.8
2018-Jun-07 09:30N 43°40' W 002°36'611.9
2018-Jun-07 09:00N 43°41' W 002°44'611.7
2018-Jun-07 08:30N 43°42' W 002°52'611.6
2018-Jun-07 08:00N 43°42' W 002°60'611.6
2018-Jun-07 07:30N 43°43' W 003°08'611.5
2018-Jun-07 07:00N 43°43' W 003°16'611.5
2018-Jun-07 06:30N 43°43' W 003°24'611.7
2018-Jun-07 06:00N 43°43' W 003°32'611.6
2018-Jun-07 05:30N 43°43' W 003°40'611.6
2018-Jun-07 05:00N 43°43' W 003°48'  
Track history (hours):
 
Tides and Currents Weather Stations Pressure Air Temp Water Temp Dewpoint Dewpoint Depression Visibility Wind Speed Wind Dir Waves Ship Positions

San Beato

Last reported at 2018-Jun-17 03:14 UTC. Time now 2018-Jun-18 19:07 UTC.
Position N 35°55' W 005°01'.

Length 110 m; draft 6 m.

Type: Tanker. MMSI: 269032000.

Date/timePositionNaut miles runAvg speedWind from/ knotsBaromVisibWave heightAir tempDewpointWater temp
2018-Jun-17 03:14N 35°55' W 005°01'612.8
2018-Jun-17 02:45N 35°56' W 005°09'313.7
2018-Jun-17 02:31N 35°57' W 005°13'713.4
2018-Jun-17 02:01N 35°58' W 005°21'612.2
2018-Jun-17 01:30N 35°57' W 005°28'611.1
2018-Jun-17 01:01N 35°55' W 005°35'510.1
2018-Jun-17 00:30N 35°54' W 005°41'4 8.4
2018-Jun-16 23:59N 35°53' W 005°46'94 4.0
2018-Jun-16 00:10N 37°10' W 006°54'0 0.0
2018-Jun-15 23:58N 37°10' W 006°54'  
2018-Jun-11 23:34N 37°26' W 009°51'111.9
2018-Jun-11 23:27N 37°28' W 009°51'511.9
2018-Jun-11 23:00N 37°33' W 009°53'611.8
2018-Jun-11 22:30N 37°38' W 009°55'611.7
2018-Jun-11 22:00N 37°44' W 009°56'1011.8
2018-Jun-11 21:08N 37°54' W 009°59'612.2
2018-Jun-11 20:39N 37°60' W 010°01'212.1
2018-Jun-11 20:28N 38°02' W 010°01'1111.9
2018-Jun-11 19:33N 38°13' W 010°04'112.3
2018-Jun-11 19:26N 38°14' W 010°05'712.3
2018-Jun-11 18:53N 38°21' W 010°07'412.1
2018-Jun-11 18:30N 38°25' W 010°08'612.2
2018-Jun-11 17:59N 38°31' W 010°10'612.2
2018-Jun-11 17:30N 38°37' W 010°12'612.0
2018-Jun-11 16:59N 38°43' W 010°13'612.0
2018-Jun-11 16:30N 38°49' W 010°13'612.5
2018-Jun-11 16:00N 38°55' W 010°13'612.6
2018-Jun-11 15:30N 39°01' W 010°13'611.9
2018-Jun-11 15:00N 39°07' W 010°13'338 9.1
2018-Jun-10 02:04N 43°53' W 006°12'311.7
2018-Jun-10 01:50N 43°52' W 006°08'511.5
2018-Jun-10 01:22N 43°52' W 006°01'411.6
2018-Jun-10 01:00N 43°52' W 005°54'611.8
2018-Jun-10 00:30N 43°51' W 005°46'2411.9
2018-Jun-09 22:30N 43°49' W 005°14'1611.9
2018-Jun-09 21:08N 43°48' W 004°51'211.9
2018-Jun-09 20:58N 43°48' W 004°48'4112.0
2018-Jun-09 17:35N 43°44' W 003°52'112.2
2018-Jun-09 17:30N 43°44' W 003°51'612.2
2018-Jun-09 17:00N 43°44' W 003°43'612.3
2018-Jun-09 16:30N 43°43' W 003°34'712.2
2018-Jun-09 15:57N 43°43' W 003°25'1212.3
2018-Jun-09 15:00N 43°42' W 003°09'612.4
2018-Jun-09 14:30N 43°41' W 003°00'612.3
2018-Jun-09 14:00N 43°41' W 002°52'612.2
2018-Jun-09 13:30N 43°40' W 002°43'612.0
2018-Jun-09 13:00N 43°40' W 002°35'612.2
2018-Jun-09 12:30N 43°39' W 002°27'612.2
2018-Jun-09 12:00N 43°39' W 002°18'611.6
2018-Jun-09 11:30N 43°38' W 002°10'611.5
2018-Jun-09 11:00N 43°38' W 002°02'611.5
2018-Jun-09 10:30N 43°37' W 001°54'611.4
2018-Jun-09 10:00N 43°36' W 001°47'611.3
2018-Jun-09 09:30N 43°34' W 001°39'510.2
2018-Jun-09 09:01N 43°32' W 001°33'2 3.7
2018-Jun-09 08:28N 43°32' W 001°30'0 0.0
2018-Jun-09 07:58N 43°32' W 001°30'0 0.0
2018-Jun-09 07:28N 43°32' W 001°30'0 0.0
2018-Jun-09 06:58N 43°32' W 001°30'0 0.0
2018-Jun-09 06:28N 43°32' W 001°30'0 0.0
2018-Jun-09 05:58N 43°32' W 001°30'0 0.0
2018-Jun-09 05:28N 43°32' W 001°30'0 0.0
2018-Jun-09 04:58N 43°32' W 001°30'0 0.0
2018-Jun-09 03:01N 43°32' W 001°30'0 0.0
2018-Jun-09 02:52N 43°32' W 001°30'0 0.0
2018-Jun-09 02:28N 43°32' W 001°30'0 0.0
2018-Jun-09 00:55N 43°32' W 001°30'0 0.0
2018-Jun-09 00:25N 43°32' W 001°30'0 0.0
2018-Jun-08 23:58N 43°32' W 001°30'0 0.0
2018-Jun-08 23:28N 43°32' W 001°30'0 0.0
2018-Jun-08 22:58N 43°32' W 001°30'0 0.0
2018-Jun-08 22:28N 43°32' W 001°30'0 0.0
2018-Jun-08 21:58N 43°32' W 001°30'0 0.0
2018-Jun-08 21:28N 43°32' W 001°30'0 0.0
2018-Jun-08 12:43N 43°32' W 001°30'0 0.0
2018-Jun-08 12:30N 43°32' W 001°30'0 0.0
2018-Jun-08 12:00N 43°32' W 001°30'0 0.7
2018-Jun-08 11:30N 43°32' W 001°31'3 5.3
2018-Jun-08 11:00N 43°34' W 001°33'0 0.4
2018-Jun-08 10:29N 43°34' W 001°33'0 0.0
2018-Jun-08 09:59N 43°34' W 001°33'0 0.0
2018-Jun-08 09:29N 43°34' W 001°33'0 0.0
2018-Jun-08 08:59N 43°34' W 001°33'0 0.0
2018-Jun-08 08:29N 43°34' W 001°33'0 0.0
2018-Jun-08 07:59N 43°34' W 001°33'0 0.1
2018-Jun-08 07:29N 43°34' W 001°33'0 0.0
2018-Jun-08 06:59N 43°34' W 001°33'0 0.0
2018-Jun-08 06:29N 43°34' W 001°33'0 0.0
2018-Jun-08 05:59N 43°34' W 001°33'0 0.0
2018-Jun-08 05:29N 43°34' W 001°33'0 0.0
2018-Jun-08 04:59N 43°34' W 001°33'0 0.1
2018-Jun-08 04:29N 43°34' W 001°33'0 0.1
2018-Jun-08 03:59N 43°34' W 001°33'0 0.0
2018-Jun-08 03:29N 43°34' W 001°33'0 0.0
2018-Jun-08 02:59N 43°34' W 001°33'0 0.1
2018-Jun-08 02:29N 43°34' W 001°33'0 0.0
2018-Jun-08 01:59N 43°34' W 001°33'0 0.0
2018-Jun-08 01:29N 43°34' W 001°33'0 0.0
2018-Jun-08 00:59N 43°34' W 001°33'0 0.0
2018-Jun-08 00:29N 43°34' W 001°33'0 0.0
2018-Jun-07 23:59N 43°34' W 001°33'0 0.0
2018-Jun-07 23:29N 43°34' W 001°34'0 0.1
2018-Jun-07 22:59N 43°34' W 001°34'0 0.6
2018-Jun-07 22:30N 43°34' W 001°34'4 8.7
2018-Jun-07 22:00N 43°36' W 001°39'611.1
2018-Jun-07 21:30N 43°39' W 001°46'510.9
2018-Jun-07 21:00N 43°41' W 001°53'1 1.3
2018-Jun-07 20:30N 43°42' W 001°53'0 0.7
2018-Jun-07 20:00N 43°42' W 001°53'0 0.6
2018-Jun-07 19:30N 43°42' W 001°53'0 0.6
2018-Jun-07 19:00N 43°43' W 001°53'0 0.3
2018-Jun-07 18:30N 43°43' W 001°53'0 0.1
2018-Jun-07 18:00N 43°43' W 001°53'0 0.2
2018-Jun-07 17:30N 43°43' W 001°53'0 0.2
2018-Jun-07 17:00N 43°43' W 001°53'0 0.1
2018-Jun-07 16:30N 43°43' W 001°53'0 0.2
2018-Jun-07 16:00N 43°43' W 001°53'0 0.2
2018-Jun-07 15:30N 43°43' W 001°53'0 0.3
2018-Jun-07 15:00N 43°43' W 001°53'0 0.3
2018-Jun-07 14:30N 43°43' W 001°53'0 0.2
2018-Jun-07 14:00N 43°43' W 001°53'2 3.6
2018-Jun-07 13:30N 43°42' W 001°51'5 9.1
2018-Jun-07 13:00N 43°39' W 001°46'3 5.4
2018-Jun-07 12:30N 43°37' W 001°48'611.3
2018-Jun-07 12:00N 43°37' W 001°56'611.3
2018-Jun-07 11:30N 43°38' W 002°04'611.4
2018-Jun-07 11:00N 43°39' W 002°12'611.4
2018-Jun-07 10:30N 43°39' W 002°20'611.5
2018-Jun-07 10:00N 43°40' W 002°27'611.8
2018-Jun-07 09:30N 43°40' W 002°36'611.9
2018-Jun-07 09:00N 43°41' W 002°44'611.7
2018-Jun-07 08:30N 43°42' W 002°52'611.6
2018-Jun-07 08:00N 43°42' W 002°60'611.6
2018-Jun-07 07:30N 43°43' W 003°08'611.5
2018-Jun-07 07:00N 43°43' W 003°16'611.5
2018-Jun-07 06:30N 43°43' W 003°24'611.7
2018-Jun-07 06:00N 43°43' W 003°32'611.6
2018-Jun-07 05:30N 43°43' W 003°40'611.6
2018-Jun-07 05:00N 43°43' W 003°48'  

Dump ship's entire track history